SWR98DP LSZH-LPMA
Flight info
| Callsign | SWR98DP |
|---|---|
| Flight time | N/A |
| Altitude | 31000 |
| Route | VEBIT T50 ROTOS Z669 ULMES DCT VADAR DCT NINTU DCT MEBAK DCT REPSI DCT LERGA/N0451F330 DCT MINSO DCT NARAK DCT AGN DCT PIPOR DCT PPN DCT MIRPO DCT DGO DCT NEA DCT ARDID DCT FTM DCT NASAS DCT LIDRO |
| Aircraft | A321/M-SDE3FGHIRWY/LB1 |
Departure
| Time | 2026-05-07 15:40 |
|---|---|
| Airport | Zürich Airport (LSZH) |
Arrival
| Time | N/A |
|---|---|
| Airport | Cristiano Ronaldo International Airport (LPMA) |
| Time | Latitude | Longitude | Altitude | Speed | Heading |
|---|---|---|---|---|---|
| 2026-05-07 14:46 | 47.45343 | 8.55754 | 1408 ft | 0 kts | 6° |
| 2026-05-07 15:24 | 47.45345 | 8.55754 | 1397 ft | 0 kts | 6° |
| 2026-05-07 15:28 | 47.45343 | 8.55754 | 1397 ft | 2 kts | 6° |
| 2026-05-07 15:28 | 47.45317 | 8.55752 | 1404 ft | 4 kts | 354° |
| 2026-05-07 15:29 | 47.45291 | 8.55761 | 1402 ft | 4 kts | 335° |
| 2026-05-07 15:29 | 47.45270 | 8.55782 | 1403 ft | 4 kts | 307° |
| 2026-05-07 15:29 | 47.45260 | 8.55811 | 1402 ft | 1 kts | 276° |
| 2026-05-07 15:29 | 47.45260 | 8.55812 | 1402 ft | 0 kts | 276° |
| 2026-05-07 15:32 | 47.45260 | 8.55808 | 1401 ft | 1 kts | 275° |
| 2026-05-07 15:32 | 47.45263 | 8.55768 | 1401 ft | 7 kts | 276° |
| 2026-05-07 15:32 | 47.45269 | 8.55666 | 1397 ft | 13 kts | 277° |
| 2026-05-07 15:32 | 47.45321 | 8.55547 | 1400 ft | 17 kts | 331° |
| 2026-05-07 15:33 | 47.45442 | 8.55463 | 1397 ft | 20 kts | 335° |
| 2026-05-07 15:33 | 47.45580 | 8.55367 | 1398 ft | 24 kts | 336° |
| 2026-05-07 15:33 | 47.45665 | 8.55382 | 1400 ft | 11 kts | 79° |
| 2026-05-07 15:33 | 47.45662 | 8.55530 | 1397 ft | 18 kts | 95° |
| 2026-05-07 15:34 | 47.45646 | 8.55744 | 1404 ft | 24 kts | 96° |
| 2026-05-07 15:34 | 47.45627 | 8.56002 | 1397 ft | 26 kts | 97° |
| 2026-05-07 15:34 | 47.45608 | 8.56273 | 1396 ft | 26 kts | 96° |
| 2026-05-07 15:34 | 47.45591 | 8.56518 | 1398 ft | 19 kts | 97° |
| 2026-05-07 15:35 | 47.45578 | 8.56714 | 1404 ft | 16 kts | 95° |
| 2026-05-07 15:35 | 47.45565 | 8.56871 | 1397 ft | 14 kts | 94° |
| 2026-05-07 15:35 | 47.45563 | 8.56916 | 1397 ft | 0 kts | 96° |
| 2026-05-07 15:36 | 47.45562 | 8.56949 | 1397 ft | 6 kts | 86° |
| 2026-05-07 15:36 | 47.45571 | 8.56985 | 1398 ft | 0 kts | 55° |
| 2026-05-07 15:37 | 47.45572 | 8.56986 | 1398 ft | 1 kts | 53° |
| 2026-05-07 15:38 | 47.45580 | 8.56999 | 1405 ft | 3 kts | 42° |
| 2026-05-07 15:38 | 47.45621 | 8.57021 | 1402 ft | 11 kts | 17° |
| 2026-05-07 15:38 | 47.45650 | 8.56968 | 1403 ft | 1 kts | 247° |
| 2026-05-07 15:38 | 47.45657 | 8.56959 | 1400 ft | 3 kts | 322° |
| 2026-05-07 15:39 | 47.45666 | 8.56936 | 1400 ft | 4 kts | 288° |
| 2026-05-07 15:39 | 47.45672 | 8.56867 | 1398 ft | 22 kts | 275° |
| 2026-05-07 15:39 | 47.45718 | 8.56227 | 1405 ft | 100 kts | 276° |
| 2026-05-07 15:39 | 47.45813 | 8.54890 | 1395 ft | 160 kts | 276° |
| 2026-05-07 15:40 | 47.45940 | 8.53111 | 1811 ft | 176 kts | 276° |
| 2026-05-07 15:40 | 47.46065 | 8.51328 | 2730 ft | 174 kts | 276° |
| 2026-05-07 15:40 | 47.46192 | 8.49549 | 3185 ft | 178 kts | 276° |
| 2026-05-07 15:40 | 47.46144 | 8.47646 | 3321 ft | 195 kts | 251° |
| 2026-05-07 15:41 | 47.45279 | 8.46035 | 3455 ft | 213 kts | 216° |
| 2026-05-07 15:41 | 47.44044 | 8.44739 | 3723 ft | 219 kts | 224° |
| 2026-05-07 15:41 | 47.43033 | 8.43051 | 4129 ft | 221 kts | 236° |
| 2026-05-07 15:41 | 47.42096 | 8.41146 | 4309 ft | 237 kts | 236° |
| 2026-05-07 15:42 | 47.41118 | 8.39115 | 4669 ft | 246 kts | 236° |
| 2026-05-07 15:42 | 47.40100 | 8.36982 | 4988 ft | 261 kts | 236° |
| 2026-05-07 15:42 | 47.39050 | 8.34759 | 5566 ft | 266 kts | 238° |
| 2026-05-07 15:42 | 47.38136 | 8.32369 | 6203 ft | 268 kts | 243° |
| 2026-05-07 15:43 | 47.37265 | 8.29944 | 6879 ft | 267 kts | 243° |
| 2026-05-07 15:43 | 47.36416 | 8.27534 | 7439 ft | 269 kts | 243° |
| 2026-05-07 15:43 | 47.35558 | 8.25080 | 8040 ft | 270 kts | 243° |
| 2026-05-07 15:43 | 47.34689 | 8.22609 | 8599 ft | 272 kts | 243° |
| 2026-05-07 15:44 | 47.33812 | 8.20128 | 9172 ft | 274 kts | 243° |
| 2026-05-07 15:44 | 47.32926 | 8.17635 | 9753 ft | 275 kts | 242° |
| 2026-05-07 15:44 | 47.32031 | 8.15119 | 10232 ft | 280 kts | 242° |
| 2026-05-07 15:44 | 47.31100 | 8.12497 | 10353 ft | 298 kts | 242° |
| 2026-05-07 15:45 | 47.30112 | 8.09718 | 10475 ft | 313 kts | 242° |
| 2026-05-07 15:45 | 47.29074 | 8.06804 | 10601 ft | 328 kts | 242° |
| 2026-05-07 15:45 | 47.27996 | 8.03774 | 10862 ft | 338 kts | 242° |
| 2026-05-07 15:45 | 47.26906 | 8.00686 | 11306 ft | 342 kts | 244° |
| 2026-05-07 15:46 | 47.25078 | 7.94171 | 12275 ft | 347 kts | 247° |
| 2026-05-07 15:46 | 47.24159 | 7.90878 | 12775 ft | 349 kts | 247° |
| 2026-05-07 15:46 | 47.23545 | 7.88683 | 13105 ft | 351 kts | 247° |
| 2026-05-07 15:47 | 47.22301 | 7.84258 | 13763 ft | 355 kts | 247° |
| 2026-05-07 15:47 | 47.21350 | 7.80896 | 14177 ft | 357 kts | 247° |
| 2026-05-07 15:47 | 47.20396 | 7.77513 | 14590 ft | 359 kts | 247° |
| 2026-05-07 15:47 | 47.19423 | 7.74123 | 14991 ft | 361 kts | 244° |
| 2026-05-07 15:48 | 47.18141 | 7.70937 | 15379 ft | 363 kts | 233° |
| 2026-05-07 15:48 | 47.17106 | 7.68996 | 15636 ft | 365 kts | 232° |
| 2026-05-07 15:48 | 47.15522 | 7.66072 | 16031 ft | 367 kts | 232° |
| 2026-05-07 15:48 | 47.13928 | 7.63127 | 16415 ft | 369 kts | 232° |
| 2026-05-07 15:49 | 47.12326 | 7.60162 | 16786 ft | 371 kts | 232° |
| 2026-05-07 15:49 | 47.10716 | 7.57182 | 17161 ft | 374 kts | 232° |
| 2026-05-07 15:49 | 47.09092 | 7.54181 | 17527 ft | 376 kts | 232° |
| 2026-05-07 15:49 | 47.07460 | 7.51169 | 17882 ft | 378 kts | 232° |
| 2026-05-07 15:50 | 47.05819 | 7.48148 | 18207 ft | 380 kts | 232° |
| 2026-05-07 15:50 | 47.04170 | 7.45115 | 18501 ft | 381 kts | 232° |
| 2026-05-07 15:50 | 47.02514 | 7.42068 | 18779 ft | 383 kts | 232° |
| 2026-05-07 15:50 | 47.00853 | 7.39016 | 19081 ft | 384 kts | 232° |
| 2026-05-07 15:51 | 46.99181 | 7.35961 | 19387 ft | 385 kts | 231° |
| 2026-05-07 15:51 | 46.97522 | 7.32938 | 19674 ft | 386 kts | 232° |
| 2026-05-07 15:51 | 46.95835 | 7.29867 | 19961 ft | 387 kts | 232° |
| 2026-05-07 15:51 | 46.94144 | 7.26786 | 20231 ft | 389 kts | 232° |
| 2026-05-07 15:52 | 46.92451 | 7.23699 | 20518 ft | 391 kts | 232° |
| 2026-05-07 15:52 | 46.90745 | 7.20588 | 20795 ft | 392 kts | 232° |
| 2026-05-07 15:52 | 46.89034 | 7.17469 | 21091 ft | 394 kts | 232° |
| 2026-05-07 15:52 | 46.87313 | 7.14343 | 21379 ft | 395 kts | 232° |
| 2026-05-07 15:53 | 46.85583 | 7.11204 | 21672 ft | 397 kts | 232° |
| 2026-05-07 15:53 | 46.83850 | 7.08058 | 21966 ft | 399 kts | 232° |
| 2026-05-07 15:53 | 46.82109 | 7.04897 | 22256 ft | 400 kts | 232° |
| 2026-05-07 15:53 | 46.80356 | 7.01717 | 22541 ft | 402 kts | 232° |
| 2026-05-07 15:54 | 46.78598 | 6.98534 | 22837 ft | 404 kts | 232° |
| 2026-05-07 15:54 | 46.76832 | 6.95341 | 23116 ft | 406 kts | 232° |
| 2026-05-07 15:54 | 46.75055 | 6.92136 | 23415 ft | 407 kts | 232° |
| 2026-05-07 15:54 | 46.73271 | 6.88920 | 23707 ft | 408 kts | 232° |
| 2026-05-07 15:55 | 46.71481 | 6.85699 | 23960 ft | 409 kts | 232° |
| 2026-05-07 15:55 | 46.69686 | 6.82476 | 24211 ft | 410 kts | 232° |
| 2026-05-07 15:55 | 46.67885 | 6.79246 | 24453 ft | 411 kts | 232° |
| 2026-05-07 15:55 | 46.66090 | 6.76000 | 24685 ft | 411 kts | 234° |
| 2026-05-07 15:56 | 46.64533 | 6.72517 | 24908 ft | 411 kts | 240° |
| 2026-05-07 15:56 | 46.63054 | 6.68942 | 25152 ft | 412 kts | 240° |
| 2026-05-07 15:56 | 46.61588 | 6.65414 | 25389 ft | 413 kts | 240° |
| 2026-05-07 15:56 | 46.60096 | 6.61838 | 25627 ft | 414 kts | 240° |
| 2026-05-07 15:57 | 46.58595 | 6.58254 | 25873 ft | 415 kts | 240° |
| 2026-05-07 15:57 | 46.57090 | 6.54670 | 26105 ft | 416 kts | 240° |
| 2026-05-07 15:57 | 46.55580 | 6.51075 | 26339 ft | 417 kts | 240° |
| 2026-05-07 15:57 | 46.54069 | 6.47480 | 26572 ft | 418 kts | 240° |
| 2026-05-07 15:58 | 46.52554 | 6.43875 | 26815 ft | 418 kts | 240° |
| 2026-05-07 15:58 | 46.51037 | 6.40264 | 27042 ft | 419 kts | 240° |
| 2026-05-07 15:58 | 46.49513 | 6.36642 | 27255 ft | 420 kts | 240° |
| 2026-05-07 15:58 | 46.47985 | 6.33019 | 27467 ft | 421 kts | 240° |
| 2026-05-07 15:59 | 46.46454 | 6.29395 | 27675 ft | 422 kts | 240° |
| 2026-05-07 15:59 | 46.44918 | 6.25759 | 27858 ft | 423 kts | 240° |
| 2026-05-07 15:59 | 46.43383 | 6.22129 | 28063 ft | 424 kts | 240° |
| 2026-05-07 15:59 | 46.41838 | 6.18482 | 28245 ft | 424 kts | 240° |
| 2026-05-07 16:00 | 46.40289 | 6.14831 | 28394 ft | 425 kts | 240° |
| 2026-05-07 16:00 | 46.38738 | 6.11178 | 28570 ft | 425 kts | 240° |
| 2026-05-07 16:00 | 46.37186 | 6.07529 | 28738 ft | 426 kts | 240° |
| 2026-05-07 16:00 | 46.35630 | 6.03881 | 28914 ft | 426 kts | 240° |
| 2026-05-07 16:01 | 46.34074 | 6.00233 | 29129 ft | 426 kts | 240° |
| 2026-05-07 16:01 | 46.32519 | 5.96590 | 29350 ft | 425 kts | 240° |
| 2026-05-07 16:01 | 46.30968 | 5.92960 | 29579 ft | 424 kts | 239° |
| 2026-05-07 16:01 | 46.29413 | 5.89337 | 29804 ft | 423 kts | 239° |
| 2026-05-07 16:02 | 46.27882 | 5.85779 | 30022 ft | 422 kts | 239° |
| 2026-05-07 16:02 | 46.26333 | 5.82177 | 30202 ft | 422 kts | 239° |
| 2026-05-07 16:02 | 46.24790 | 5.78590 | 30369 ft | 421 kts | 240° |
| 2026-05-07 16:02 | 46.23246 | 5.74999 | 30542 ft | 420 kts | 239° |
| 2026-05-07 16:03 | 46.21702 | 5.71410 | 30705 ft | 419 kts | 240° |
| 2026-05-07 16:03 | 46.20163 | 5.67843 | 30894 ft | 418 kts | 240° |
| 2026-05-07 16:03 | 46.18627 | 5.64289 | 30982 ft | 414 kts | 240° |
| 2026-05-07 16:04 | 46.15593 | 5.57301 | 31005 ft | 409 kts | 239° |
| 2026-05-07 16:04 | 46.12497 | 5.50430 | 31002 ft | 409 kts | 237° |
| 2026-05-07 16:05 | 46.09233 | 5.43702 | 31001 ft | 409 kts | 237° |
| 2026-05-07 16:05 | 46.05955 | 5.37009 | 30998 ft | 409 kts | 237° |
| 2026-05-07 16:06 | 46.02720 | 5.30329 | 30987 ft | 409 kts | 237° |
| 2026-05-07 16:06 | 45.99476 | 5.23585 | 30990 ft | 410 kts | 237° |
| 2026-05-07 16:07 | 45.96221 | 5.16861 | 30993 ft | 410 kts | 237° |
| 2026-05-07 16:07 | 45.92968 | 5.10140 | 30999 ft | 410 kts | 236° |
| 2026-05-07 16:08 | 45.89706 | 5.03427 | 30995 ft | 410 kts | 236° |
| 2026-05-07 16:08 | 45.86433 | 4.96728 | 30995 ft | 410 kts | 236° |
| 2026-05-07 16:09 | 45.83159 | 4.90027 | 30983 ft | 410 kts | 236° |
| 2026-05-07 16:09 | 45.79882 | 4.83333 | 30990 ft | 410 kts | 236° |
| 2026-05-07 16:10 | 45.76592 | 4.76641 | 30994 ft | 411 kts | 236° |
| 2026-05-07 16:10 | 45.73301 | 4.69960 | 31003 ft | 411 kts | 236° |
| 2026-05-07 16:11 | 45.70023 | 4.63317 | 30998 ft | 411 kts | 236° |
| 2026-05-07 16:11 | 45.66722 | 4.56631 | 30992 ft | 411 kts | 235° |
| 2026-05-07 16:12 | 45.63424 | 4.49962 | 30998 ft | 411 kts | 235° |
| 2026-05-07 16:12 | 45.60103 | 4.43262 | 31002 ft | 417 kts | 235° |
| 2026-05-07 16:13 | 45.56711 | 4.36448 | 31003 ft | 425 kts | 235° |
| 2026-05-07 16:13 | 45.53278 | 4.29583 | 31002 ft | 430 kts | 235° |
| 2026-05-07 16:14 | 45.49785 | 4.22607 | 30993 ft | 433 kts | 235° |
| 2026-05-07 16:14 | 45.46283 | 4.15634 | 31001 ft | 432 kts | 235° |
| 2026-05-07 16:15 | 45.42778 | 4.08674 | 30995 ft | 432 kts | 235° |
| 2026-05-07 16:15 | 45.39276 | 4.01730 | 30988 ft | 432 kts | 234° |
| 2026-05-07 16:16 | 45.35768 | 3.94789 | 30981 ft | 432 kts | 234° |
| 2026-05-07 16:16 | 45.32259 | 3.87850 | 30984 ft | 432 kts | 234° |
| 2026-05-07 16:17 | 45.28746 | 3.80935 | 30983 ft | 432 kts | 234° |
| 2026-05-07 16:17 | 45.25225 | 3.74032 | 30969 ft | 431 kts | 234° |
| 2026-05-07 16:18 | 45.21771 | 3.67076 | 30964 ft | 431 kts | 235° |
| 2026-05-07 16:18 | 45.18362 | 3.60066 | 30965 ft | 432 kts | 236° |
| 2026-05-07 16:19 | 45.14929 | 3.53083 | 30961 ft | 432 kts | 235° |
| 2026-05-07 16:19 | 45.11475 | 3.46121 | 30956 ft | 431 kts | 235° |
| 2026-05-07 16:20 | 45.08049 | 3.39222 | 30961 ft | 431 kts | 235° |
| 2026-05-07 16:20 | 45.04597 | 3.32285 | 30960 ft | 431 kts | 235° |
| 2026-05-07 16:21 | 45.01137 | 3.25365 | 30960 ft | 431 kts | 234° |
| 2026-05-07 16:21 | 44.97673 | 3.18450 | 30963 ft | 431 kts | 234° |
| 2026-05-07 16:22 | 44.94215 | 3.11548 | 30952 ft | 430 kts | 234° |
| 2026-05-07 16:22 | 44.90752 | 3.04652 | 30966 ft | 430 kts | 234° |
| 2026-05-07 16:23 | 44.87287 | 2.97771 | 30959 ft | 431 kts | 234° |
| 2026-05-07 16:23 | 44.83845 | 2.90921 | 30956 ft | 431 kts | 235° |
| 2026-05-07 16:24 | 44.80557 | 2.83856 | 30956 ft | 431 kts | 237° |
| 2026-05-07 16:24 | 44.77351 | 2.76717 | 30958 ft | 431 kts | 237° |
| 2026-05-07 16:25 | 44.74115 | 2.69608 | 30963 ft | 431 kts | 237° |
| 2026-05-07 16:25 | 44.70836 | 2.62528 | 30967 ft | 432 kts | 236° |
| 2026-05-07 16:26 | 44.67534 | 2.55453 | 30964 ft | 433 kts | 236° |
| 2026-05-07 16:26 | 44.64228 | 2.48377 | 30966 ft | 433 kts | 236° |
| 2026-05-07 16:27 | 44.60923 | 2.41305 | 30965 ft | 433 kts | 236° |
| 2026-05-07 16:27 | 44.57618 | 2.34236 | 30960 ft | 433 kts | 236° |
| 2026-05-07 16:28 | 44.54305 | 2.27175 | 30981 ft | 433 kts | 236° |
| 2026-05-07 16:28 | 44.51013 | 2.20167 | 30978 ft | 433 kts | 236° |
| 2026-05-07 16:29 | 44.47691 | 2.13110 | 30974 ft | 433 kts | 236° |
| 2026-05-07 16:29 | 44.44365 | 2.06075 | 30972 ft | 433 kts | 236° |
| 2026-05-07 16:30 | 44.41034 | 1.99038 | 30966 ft | 433 kts | 236° |
| 2026-05-07 16:30 | 44.37708 | 1.92022 | 30964 ft | 432 kts | 236° |
| 2026-05-07 16:31 | 44.34371 | 1.85029 | 30971 ft | 432 kts | 235° |
| 2026-05-07 16:31 | 44.31049 | 1.78085 | 30966 ft | 432 kts | 235° |
| 2026-05-07 16:32 | 44.27727 | 1.71074 | 30960 ft | 432 kts | 236° |
| 2026-05-07 16:32 | 44.24487 | 1.63997 | 30957 ft | 433 kts | 237° |
| 2026-05-07 16:33 | 44.21263 | 1.56905 | 30948 ft | 433 kts | 237° |
| 2026-05-07 16:33 | 44.18016 | 1.49826 | 30958 ft | 433 kts | 236° |
| 2026-05-07 16:34 | 44.14770 | 1.42807 | 30952 ft | 433 kts | 236° |
| 2026-05-07 16:34 | 44.11496 | 1.35765 | 30951 ft | 433 kts | 236° |
| 2026-05-07 16:35 | 44.08214 | 1.28712 | 30949 ft | 433 kts | 236° |
| 2026-05-07 16:35 | 44.04937 | 1.21666 | 30950 ft | 434 kts | 236° |
| 2026-05-07 16:36 | 44.01663 | 1.14663 | 30946 ft | 434 kts | 236° |
| 2026-05-07 16:36 | 43.98368 | 1.07634 | 30953 ft | 434 kts | 236° |
| 2026-05-07 16:37 | 43.95071 | 1.00606 | 30950 ft | 434 kts | 236° |
| 2026-05-07 16:37 | 43.92329 | 0.94759 | 30950 ft | 434 kts | 236° |
| 2026-05-07 16:38 | 43.89018 | 0.87746 | 30950 ft | 435 kts | 235° |
| 2026-05-07 16:38 | 43.85811 | 0.80620 | 30951 ft | 435 kts | 238° |
| 2026-05-07 16:39 | 43.82766 | 0.73369 | 30956 ft | 436 kts | 238° |
| 2026-05-07 16:39 | 43.79713 | 0.66118 | 30952 ft | 436 kts | 238° |
| 2026-05-07 16:40 | 43.76605 | 0.58905 | 30949 ft | 436 kts | 237° |
| 2026-05-07 16:40 | 43.73472 | 0.51716 | 30950 ft | 436 kts | 237° |
| 2026-05-07 16:41 | 43.70333 | 0.44528 | 30951 ft | 437 kts | 237° |
| 2026-05-07 16:41 | 43.67217 | 0.37383 | 30964 ft | 437 kts | 237° |
| 2026-05-07 16:42 | 43.64083 | 0.30177 | 30951 ft | 437 kts | 237° |
| 2026-05-07 16:42 | 43.60939 | 0.22999 | 30951 ft | 437 kts | 237° |
| 2026-05-07 16:43 | 43.57788 | 0.15815 | 30946 ft | 436 kts | 237° |
| 2026-05-07 16:43 | 43.54642 | 0.08659 | 30941 ft | 436 kts | 237° |
| 2026-05-07 16:44 | 43.51489 | 0.01516 | 30939 ft | 436 kts | 237° |
| 2026-05-07 16:44 | 43.48345 | -0.05592 | 30955 ft | 437 kts | 237° |
| 2026-05-07 16:45 | 43.45178 | -0.12734 | 30953 ft | 437 kts | 237° |
| 2026-05-07 16:45 | 43.42007 | -0.19882 | 30947 ft | 437 kts | 237° |
| 2026-05-07 16:46 | 43.38824 | -0.27017 | 30949 ft | 438 kts | 237° |
| 2026-05-07 16:46 | 43.35638 | -0.34150 | 30952 ft | 438 kts | 237° |
| 2026-05-07 16:47 | 43.32446 | -0.41286 | 30953 ft | 438 kts | 237° |
| 2026-05-07 16:47 | 43.29309 | -0.48279 | 30953 ft | 438 kts | 237° |
| 2026-05-07 16:48 | 43.26105 | -0.55399 | 30946 ft | 438 kts | 237° |
| 2026-05-07 16:48 | 43.22901 | -0.62507 | 30940 ft | 438 kts | 237° |
| 2026-05-07 16:49 | 43.19693 | -0.69613 | 30927 ft | 438 kts | 237° |
| 2026-05-07 16:49 | 43.16501 | -0.76654 | 30940 ft | 438 kts | 237° |
| 2026-05-07 16:50 | 43.13288 | -0.83734 | 30932 ft | 438 kts | 237° |
| 2026-05-07 16:50 | 43.10076 | -0.90810 | 30934 ft | 438 kts | 237° |
| 2026-05-07 16:51 | 43.06848 | -0.97872 | 30932 ft | 437 kts | 237° |
| 2026-05-07 16:51 | 43.03613 | -1.04927 | 30927 ft | 438 kts | 237° |
| 2026-05-07 16:52 | 43.00372 | -1.11979 | 30923 ft | 437 kts | 237° |
| 2026-05-07 16:52 | 42.97138 | -1.19023 | 30938 ft | 437 kts | 237° |
| 2026-05-07 16:53 | 42.93907 | -1.26050 | 30938 ft | 437 kts | 237° |
| 2026-05-07 16:53 | 42.90687 | -1.33031 | 30938 ft | 436 kts | 237° |
| 2026-05-07 16:54 | 42.87444 | -1.40024 | 30933 ft | 436 kts | 237° |
| 2026-05-07 16:54 | 42.84198 | -1.47009 | 30929 ft | 435 kts | 237° |
| 2026-05-07 16:55 | 42.80955 | -1.53973 | 30938 ft | 435 kts | 236° |
| 2026-05-07 16:55 | 42.77707 | -1.60936 | 30936 ft | 436 kts | 236° |
| 2026-05-07 16:56 | 42.74464 | -1.67905 | 30925 ft | 436 kts | 239° |
| 2026-05-07 16:56 | 42.71280 | -1.79515 | 30915 ft | 438 kts | 251° |
| 2026-05-07 16:57 | 42.69500 | -1.87461 | 30914 ft | 439 kts | 251° |
| 2026-05-07 16:57 | 42.67723 | -1.95336 | 30901 ft | 439 kts | 251° |
| 2026-05-07 16:58 | 42.65918 | -2.03278 | 30899 ft | 440 kts | 251° |
| 2026-05-07 16:58 | 42.64100 | -2.11210 | 30904 ft | 440 kts | 250° |
| 2026-05-07 16:59 | 42.62261 | -2.19151 | 31065 ft | 440 kts | 250° |
| 2026-05-07 16:59 | 42.61318 | -2.23098 | 31195 ft | 440 kts | 250° |
| 2026-05-07 16:59 | 42.60362 | -2.27034 | 31324 ft | 439 kts | 250° |
| 2026-05-07 17:00 | 42.59401 | -2.30964 | 31454 ft | 438 kts | 249° |
| 2026-05-07 17:00 | 42.58437 | -2.34886 | 31569 ft | 438 kts | 250° |
| 2026-05-07 17:00 | 42.57473 | -2.38812 | 31697 ft | 438 kts | 250° |
| 2026-05-07 17:00 | 42.56512 | -2.42731 | 31825 ft | 438 kts | 250° |
| 2026-05-07 17:01 | 42.55553 | -2.46647 | 31958 ft | 437 kts | 250° |
| 2026-05-07 17:01 | 42.54596 | -2.50562 | 32089 ft | 437 kts | 250° |
| 2026-05-07 17:01 | 42.53638 | -2.54470 | 32215 ft | 437 kts | 250° |
| 2026-05-07 17:01 | 42.52679 | -2.58371 | 32350 ft | 436 kts | 250° |
| 2026-05-07 17:02 | 42.51727 | -2.62231 | 32480 ft | 436 kts | 250° |
| 2026-05-07 17:02 | 42.50766 | -2.66126 | 32614 ft | 435 kts | 250° |
| 2026-05-07 17:02 | 42.49807 | -2.70012 | 32750 ft | 434 kts | 250° |
| 2026-05-07 17:02 | 42.48851 | -2.73889 | 32885 ft | 434 kts | 251° |
| 2026-05-07 17:03 | 42.46932 | -2.81656 | 32907 ft | 436 kts | 250° |
| 2026-05-07 17:03 | 42.44901 | -2.89382 | 32906 ft | 435 kts | 245° |
| 2026-05-07 17:04 | 42.42363 | -2.96825 | 32904 ft | 435 kts | 245° |
| 2026-05-07 17:04 | 42.39831 | -3.04261 | 32907 ft | 435 kts | 245° |
| 2026-05-07 17:05 | 42.37318 | -3.11658 | 32912 ft | 435 kts | 245° |
| 2026-05-07 17:05 | 42.34779 | -3.19087 | 32914 ft | 435 kts | 246° |
| 2026-05-07 17:06 | 42.32226 | -3.26501 | 32926 ft | 435 kts | 245° |
| 2026-05-07 17:06 | 42.29669 | -3.33908 | 32935 ft | 435 kts | 246° |
| 2026-05-07 17:07 | 42.27118 | -3.41312 | 32944 ft | 435 kts | 246° |
| 2026-05-07 17:07 | 42.24562 | -3.48705 | 32942 ft | 435 kts | 246° |
| 2026-05-07 17:08 | 42.21994 | -3.56095 | 32948 ft | 435 kts | 246° |
| 2026-05-07 17:08 | 42.19428 | -3.63476 | 32947 ft | 435 kts | 246° |
| 2026-05-07 17:09 | 42.16854 | -3.70853 | 32926 ft | 435 kts | 246° |
| 2026-05-07 17:09 | 42.14280 | -3.78224 | 32926 ft | 434 kts | 246° |
| 2026-05-07 17:10 | 42.11697 | -3.85580 | 32906 ft | 434 kts | 248° |
| 2026-05-07 17:10 | 42.09112 | -3.92919 | 32913 ft | 434 kts | 248° |
| 2026-05-07 17:11 | 42.06543 | -4.00211 | 32916 ft | 433 kts | 248° |
| 2026-05-07 17:11 | 42.03950 | -4.07542 | 32921 ft | 433 kts | 248° |
| 2026-05-07 17:12 | 42.01329 | -4.14841 | 32926 ft | 434 kts | 246° |
| 2026-05-07 17:12 | 41.98580 | -4.22057 | 32921 ft | 434 kts | 246° |
| 2026-05-07 17:13 | 41.95806 | -4.29247 | 32927 ft | 433 kts | 246° |
| 2026-05-07 17:13 | 41.93048 | -4.36448 | 32929 ft | 433 kts | 246° |
| 2026-05-07 17:14 | 41.90297 | -4.43643 | 32919 ft | 433 kts | 246° |
| 2026-05-07 17:14 | 41.87546 | -4.50828 | 32920 ft | 432 kts | 246° |
| 2026-05-07 17:15 | 41.84810 | -4.57960 | 32897 ft | 432 kts | 247° |
| 2026-05-07 17:15 | 41.82055 | -4.65116 | 32921 ft | 432 kts | 247° |
| 2026-05-07 17:16 | 41.79292 | -4.72262 | 32925 ft | 432 kts | 247° |
| 2026-05-07 17:16 | 41.76524 | -4.79405 | 32927 ft | 432 kts | 247° |
| 2026-05-07 17:17 | 41.73753 | -4.86542 | 32930 ft | 432 kts | 247° |
| 2026-05-07 17:17 | 41.70983 | -4.93672 | 32932 ft | 432 kts | 247° |
| 2026-05-07 17:18 | 41.68199 | -5.00801 | 32931 ft | 431 kts | 247° |
| 2026-05-07 17:18 | 41.65439 | -5.07841 | 32924 ft | 429 kts | 248° |
| 2026-05-07 17:19 | 41.62657 | -5.14932 | 32942 ft | 427 kts | 248° |
| 2026-05-07 17:19 | 41.59922 | -5.21892 | 32934 ft | 425 kts | 248° |
| 2026-05-07 17:20 | 41.57182 | -5.28867 | 32931 ft | 424 kts | 248° |
| 2026-05-07 17:20 | 41.54434 | -5.35827 | 32902 ft | 423 kts | 248° |
| 2026-05-07 17:21 | 41.51693 | -5.42759 | 32911 ft | 422 kts | 248° |
| 2026-05-07 17:21 | 41.48950 | -5.49679 | 32909 ft | 421 kts | 248° |
| 2026-05-07 17:22 | 41.46207 | -5.56577 | 32912 ft | 421 kts | 248° |
| 2026-05-07 17:22 | 41.43462 | -5.63474 | 32911 ft | 421 kts | 248° |
| 2026-05-07 17:23 | 41.40709 | -5.70357 | 32899 ft | 420 kts | 248° |
| 2026-05-07 17:23 | 41.37962 | -5.77216 | 32887 ft | 419 kts | 248° |
| 2026-05-07 17:24 | 41.35236 | -5.84020 | 32894 ft | 419 kts | 248° |
| 2026-05-07 17:24 | 41.32486 | -5.90847 | 32898 ft | 418 kts | 247° |
| 2026-05-07 17:25 | 41.30177 | -5.96556 | 32886 ft | 418 kts | 247° |
| 2026-05-07 17:25 | 41.27444 | -6.03322 | 32886 ft | 418 kts | 247° |
| 2026-05-07 17:26 | 41.24696 | -6.10126 | 32858 ft | 418 kts | 246° |
| 2026-05-07 17:26 | 41.21943 | -6.16924 | 32868 ft | 418 kts | 246° |
| 2026-05-07 17:27 | 41.19180 | -6.23715 | 32878 ft | 418 kts | 246° |
| 2026-05-07 17:27 | 41.16031 | -6.30245 | 32862 ft | 426 kts | 234° |
| 2026-05-07 17:28 | 41.12143 | -6.36114 | 32871 ft | 426 kts | 234° |
| 2026-05-07 17:28 | 41.08232 | -6.42019 | 32872 ft | 426 kts | 234° |
| 2026-05-07 17:29 | 41.04330 | -6.47927 | 32863 ft | 426 kts | 234° |
| 2026-05-07 17:29 | 41.00429 | -6.53826 | 32869 ft | 425 kts | 234° |
| 2026-05-07 17:30 | 40.96523 | -6.59717 | 32868 ft | 425 kts | 234° |
| 2026-05-07 17:30 | 40.92641 | -6.65545 | 32844 ft | 425 kts | 234° |
| 2026-05-07 17:31 | 40.88741 | -6.71401 | 32856 ft | 425 kts | 234° |
| 2026-05-07 17:31 | 40.84834 | -6.77257 | 32861 ft | 424 kts | 233° |
| 2026-05-07 17:32 | 40.80924 | -6.83096 | 32861 ft | 424 kts | 233° |
| 2026-05-07 17:32 | 40.76990 | -6.88907 | 32853 ft | 424 kts | 232° |
| 2026-05-07 17:33 | 40.72994 | -6.94640 | 32859 ft | 425 kts | 232° |
| 2026-05-07 17:33 | 40.69027 | -7.00288 | 32843 ft | 410 kts | 232° |
| 2026-05-07 17:34 | 40.65197 | -7.05756 | 32860 ft | 404 kts | 232° |
| 2026-05-07 17:34 | 40.61401 | -7.11189 | 32860 ft | 403 kts | 232° |
| 2026-05-07 17:35 | 40.57604 | -7.16628 | 32866 ft | 411 kts | 232° |
| 2026-05-07 17:35 | 40.53698 | -7.22209 | 32857 ft | 418 kts | 231° |
| 2026-05-07 17:36 | 40.49725 | -7.27852 | 32868 ft | 422 kts | 231° |
| 2026-05-07 17:36 | 40.45723 | -7.33516 | 32864 ft | 423 kts | 231° |
| 2026-05-07 17:37 | 40.41726 | -7.39178 | 32872 ft | 423 kts | 231° |
| 2026-05-07 17:37 | 40.37726 | -7.44835 | 32870 ft | 423 kts | 231° |
| 2026-05-07 17:38 | 40.33725 | -7.50483 | 32875 ft | 423 kts | 231° |
| 2026-05-07 17:38 | 40.29749 | -7.56097 | 32866 ft | 423 kts | 231° |
| 2026-05-07 17:39 | 40.25744 | -7.61746 | 32864 ft | 426 kts | 230° |
| 2026-05-07 17:39 | 40.21692 | -7.67425 | 32839 ft | 427 kts | 230° |
| 2026-05-07 17:40 | 40.17622 | -7.73112 | 32854 ft | 428 kts | 230° |
| 2026-05-07 17:40 | 40.13543 | -7.78786 | 32859 ft | 428 kts | 230° |
| 2026-05-07 17:41 | 40.09437 | -7.84431 | 32869 ft | 428 kts | 230° |
| 2026-05-07 17:41 | 40.05393 | -7.90065 | 32883 ft | 428 kts | 230° |
| 2026-05-07 17:42 | 40.01333 | -7.95735 | 32879 ft | 428 kts | 230° |
| 2026-05-07 17:42 | 39.97261 | -8.01396 | 32854 ft | 428 kts | 230° |
| 2026-05-07 17:43 | 39.93184 | -8.07040 | 32889 ft | 427 kts | 230° |
| 2026-05-07 17:43 | 39.89109 | -8.12668 | 32893 ft | 427 kts | 230° |
| 2026-05-07 17:44 | 39.85037 | -8.18294 | 32897 ft | 426 kts | 230° |
| 2026-05-07 17:44 | 39.80972 | -8.23906 | 32906 ft | 426 kts | 230° |
| 2026-05-07 17:45 | 39.76896 | -8.29506 | 32904 ft | 426 kts | 230° |